sensor_id;sensor_type;location;lat;lon;timestamp;pressure;altitude;pressure_sealevel;temperature;humidity
29379;BME280;16362;47.202;15.258;2022-10-16T00:01:25;96440.81;;;10.50;100.00
29379;BME280;16362;47.202;15.258;2022-10-16T00:03:52;96443.16;;;10.45;100.00
29379;BME280;16362;47.202;15.258;2022-10-16T00:06:20;96452.31;;;10.42;100.00
29379;BME280;16362;47.202;15.258;2022-10-16T00:08:48;96443.66;;;10.40;100.00
29379;BME280;16362;47.202;15.258;2022-10-16T00:11:20;96438.66;;;10.37;100.00
29379;BME280;16362;47.202;15.258;2022-10-16T00:13:49;96446.00;;;10.35;100.00
29379;BME280;16362;47.202;15.258;2022-10-16T00:16:17;96444.31;;;10.34;100.00
29379;BME280;16362;47.202;15.258;2022-10-16T00:18:44;96440.13;;;10.32;100.00
29379;BME280;16362;47.202;15.258;2022-10-16T00:21:13;96446.63;;;10.29;100.00
29379;BME280;16362;47.202;15.258;2022-10-16T00:23:41;96448.31;;;10.22;100.00
29379;BME280;16362;47.202;15.258;2022-10-16T00:26:13;96454.13;;;10.17;100.00
29379;BME280;16362;47.202;15.258;2022-10-16T00:28:40;96451.16;;;10.20;100.00
29379;BME280;16362;47.202;15.258;2022-10-16T00:31:09;96450.47;;;10.18;100.00
29379;BME280;16362;47.202;15.258;2022-10-16T00:33:37;96451.00;;;10.14;100.00
29379;BME280;16362;47.202;15.258;2022-10-16T00:36:07;96449.81;;;10.08;100.00
29379;BME280;16362;47.202;15.258;2022-10-16T00:38:34;96452.66;;;10.06;100.00
29379;BME280;16362;47.202;15.258;2022-10-16T00:41:01;96456.63;;;10.02;100.00
29379;BME280;16362;47.202;15.258;2022-10-16T00:43:38;96459.31;;;10.02;100.00
29379;BME280;16362;47.202;15.258;2022-10-16T00:48:57;96465.16;;;9.98;100.00
29379;BME280;16362;47.202;15.258;2022-10-16T00:51:30;96458.97;;;9.97;100.00
29379;BME280;16362;47.202;15.258;2022-10-16T00:53:59;96463.47;;;9.97;100.00
29379;BME280;16362;47.202;15.258;2022-10-16T00:56:26;96465.50;;;9.94;100.00
29379;BME280;16362;47.202;15.258;2022-10-16T00:58:53;96461.31;;;9.92;100.00
29379;BME280;16362;47.202;15.258;2022-10-16T01:01:20;96460.81;;;9.88;100.00
29379;BME280;16362;47.202;15.258;2022-10-16T01:03:47;96468.47;;;9.83;100.00
29379;BME280;16362;47.202;15.258;2022-10-16T01:06:41;96470.47;;;9.81;100.00
29379;BME280;16362;47.202;15.258;2022-10-16T01:09:36;96478.13;;;9.76;100.00
29379;BME280;16362;47.202;15.258;2022-10-16T01:12:40;96477.28;;;9.75;100.00
29379;BME280;16362;47.202;15.258;2022-10-16T01:15:19;96480.97;;;9.74;100.00
29379;BME280;16362;47.202;15.258;2022-10-16T01:31:46;96464.97;;;9.66;100.00
29379;BME280;16362;47.202;15.258;2022-10-16T01:34:18;96458.78;;;9.66;100.00
29379;BME280;16362;47.202;15.258;2022-10-16T01:36:50;96464.78;;;9.68;100.00
29379;BME280;16362;47.202;15.258;2022-10-16T01:39:20;96461.78;;;9.71;100.00
29379;BME280;16362;47.202;15.258;2022-10-16T01:41:54;96457.44;;;9.70;100.00
29379;BME280;16362;47.202;15.258;2022-10-16T01:44:32;96454.94;;;9.68;100.00
29379;BME280;16362;47.202;15.258;2022-10-16T01:47:00;96469.94;;;9.69;100.00
29379;BME280;16362;47.202;15.258;2022-10-16T01:49:31;96467.44;;;9.68;100.00
29379;BME280;16362;47.202;15.258;2022-10-16T01:52:00;96471.09;;;9.67;100.00
29379;BME280;16362;47.202;15.258;2022-10-16T01:54:30;96475.28;;;9.69;100.00
29379;BME280;16362;47.202;15.258;2022-10-16T01:56:59;96468.09;;;9.70;100.00
29379;BME280;16362;47.202;15.258;2022-10-16T01:59:29;96457.63;;;9.68;100.00
29379;BME280;16362;47.202;15.258;2022-10-16T02:02:05;96471.63;;;9.70;100.00
29379;BME280;16362;47.202;15.258;2022-10-16T02:04:47;96475.63;;;9.74;100.00
29379;BME280;16362;47.202;15.258;2022-10-16T02:07:16;96469.13;;;9.77;100.00
29379;BME280;16362;47.202;15.258;2022-10-16T02:09:43;96469.13;;;9.77;100.00
29379;BME280;16362;47.202;15.258;2022-10-16T02:12:25;96463.94;;;9.75;100.00
29379;BME280;16362;47.202;15.258;2022-10-16T02:14:54;96466.78;;;9.74;100.00
29379;BME280;16362;47.202;15.258;2022-10-16T02:17:21;96468.97;;;9.70;100.00
29379;BME280;16362;47.202;15.258;2022-10-16T02:19:50;96468.97;;;9.70;100.00
29379;BME280;16362;47.202;15.258;2022-10-16T02:22:22;96469.78;;;9.71;100.00
29379;BME280;16362;47.202;15.258;2022-10-16T02:24:58;96470.59;;;9.71;100.00
29379;BME280;16362;47.202;15.258;2022-10-16T02:27:55;96474.47;;;9.69;100.00
29379;BME280;16362;47.202;15.258;2022-10-16T02:30:29;96466.59;;;9.67;100.00
29379;BME280;16362;47.202;15.258;2022-10-16T02:32:58;96476.78;;;9.64;100.00
29379;BME280;16362;47.202;15.258;2022-10-16T02:35:27;96471.63;;;9.62;100.00
29379;BME280;16362;47.202;15.258;2022-10-16T02:37:55;96473.59;;;9.60;100.00
29379;BME280;16362;47.202;15.258;2022-10-16T02:40:23;96474.75;;;9.57;100.00
29379;BME280;16362;47.202;15.258;2022-10-16T02:42:52;96480.06;;;9.57;100.00
29379;BME280;16362;47.202;15.258;2022-10-16T02:45:19;96481.75;;;9.58;100.00
29379;BME280;16362;47.202;15.258;2022-10-16T02:47:47;96484.06;;;9.53;100.00
29379;BME280;16362;47.202;15.258;2022-10-16T02:50:14;96488.56;;;9.53;100.00
29379;BME280;16362;47.202;15.258;2022-10-16T02:52:40;96480.22;;;9.48;100.00
29379;BME280;16362;47.202;15.258;2022-10-16T02:55:07;96492.56;;;9.49;100.00
29379;BME280;16362;47.202;15.258;2022-10-16T02:57:34;96483.72;;;9.48;100.00
29379;BME280;16362;47.202;15.258;2022-10-16T03:00:06;96491.41;;;9.51;100.00
29379;BME280;16362;47.202;15.258;2022-10-16T03:02:33;96492.22;;;9.52;100.00
29379;BME280;16362;47.202;15.258;2022-10-16T03:05:00;96491.06;;;9.54;100.00
29379;BME280;16362;47.202;15.258;2022-10-16T03:07:26;96486.06;;;9.51;100.00
29379;BME280;16362;47.202;15.258;2022-10-16T03:09:53;96486.38;;;9.48;100.00
29379;BME280;16362;47.202;15.258;2022-10-16T03:12:21;96484.03;;;9.45;100.00
29379;BME280;16362;47.202;15.258;2022-10-16T03:14:48;96479.88;;;9.42;100.00
29379;BME280;16362;47.202;15.258;2022-10-16T03:17:15;96489.00;;;9.40;100.00
29379;BME280;16362;47.202;15.258;2022-10-16T03:19:43;96488.69;;;9.43;100.00
29379;BME280;16362;47.202;15.258;2022-10-16T03:22:10;96490.69;;;9.41;100.00
29379;BME280;16362;47.202;15.258;2022-10-16T03:24:36;96489.00;;;9.40;100.00
29379;BME280;16362;47.202;15.258;2022-10-16T03:27:03;96495.69;;;9.44;100.00
29379;BME280;16362;47.202;15.258;2022-10-16T03:29:30;96494.88;;;9.43;100.00
29379;BME280;16362;47.202;15.258;2022-10-16T03:31:59;96497.03;;;9.48;100.00
29379;BME280;16362;47.202;15.258;2022-10-16T03:34:25;96495.88;;;9.51;100.00
29379;BME280;16362;47.202;15.258;2022-10-16T03:36:52;96497.56;;;9.52;100.00
29379;BME280;16362;47.202;15.258;2022-10-16T03:39:19;96498.91;;;9.56;100.00
29379;BME280;16362;47.202;15.258;2022-10-16T03:41:46;96497.75;;;9.58;100.00
29379;BME280;16362;47.202;15.258;2022-10-16T03:44:13;96496.75;;;9.59;100.00
29379;BME280;16362;47.202;15.258;2022-10-16T03:46:40;96502.72;;;9.61;100.00
29379;BME280;16362;47.202;15.258;2022-10-16T03:49:06;96509.06;;;9.60;100.00
29379;BME280;16362;47.202;15.258;2022-10-16T03:51:35;96512.06;;;9.66;100.00
29379;BME280;16362;47.202;15.258;2022-10-16T03:54:02;96512.06;;;9.66;100.00
29379;BME280;16362;47.202;15.258;2022-10-16T03:56:29;96516.41;;;9.67;100.00
29379;BME280;16362;47.202;15.258;2022-10-16T03:58:55;96525.91;;;9.69;100.00
29379;BME280;16362;47.202;15.258;2022-10-16T04:01:22;96526.72;;;9.70;100.00
29379;BME280;16362;47.202;15.258;2022-10-16T04:03:49;96522.56;;;9.67;100.00
29379;BME280;16362;47.202;15.258;2022-10-16T04:06:15;96524.22;;;9.68;100.00
29379;BME280;16362;47.202;15.258;2022-10-16T04:08:43;96530.56;;;9.67;100.00
29379;BME280;16362;47.202;15.258;2022-10-16T04:11:10;96521.56;;;9.68;100.00
29379;BME280;16362;47.202;15.258;2022-10-16T04:13:36;96521.41;;;9.70;100.00
29379;BME280;16362;47.202;15.258;2022-10-16T04:16:03;96528.06;;;9.66;100.00
29379;BME280;16362;47.202;15.258;2022-10-16T04:18:30;96528.06;;;9.66;100.00
29379;BME280;16362;47.202;15.258;2022-10-16T04:20:57;96525.56;;;9.64;100.00
29379;BME280;16362;47.202;15.258;2022-10-16T04:23:27;96519.25;;;9.65;100.00
29379;BME280;16362;47.202;15.258;2022-10-16T04:25:54;96523.56;;;9.66;100.00
29379;BME280;16362;47.202;15.258;2022-10-16T04:28:21;96524.56;;;9.65;100.00
29379;BME280;16362;47.202;15.258;2022-10-16T04:30:48;96524.75;;;9.64;100.00
29379;BME280;16362;47.202;15.258;2022-10-16T04:33:14;96524.75;;;9.64;100.00
29379;BME280;16362;47.202;15.258;2022-10-16T04:35:41;96518.38;;;9.65;100.00
29379;BME280;16362;47.202;15.258;2022-10-16T04:38:08;96520.59;;;9.69;100.00
29379;BME280;16362;47.202;15.258;2022-10-16T04:40:34;96520.91;;;9.66;100.00
29379;BME280;16362;47.202;15.258;2022-10-16T04:43:05;96529.03;;;9.65;100.00
29379;BME280;16362;47.202;15.258;2022-10-16T04:45:32;96532.72;;;9.64;100.00
29379;BME280;16362;47.202;15.258;2022-10-16T04:47:59;96529.38;;;9.61;100.00
29379;BME280;16362;47.202;15.258;2022-10-16T04:50:26;96530.38;;;9.60;100.00
29379;BME280;16362;47.202;15.258;2022-10-16T04:52:53;96531.38;;;9.59;100.00
29379;BME280;16362;47.202;15.258;2022-10-16T04:55:19;96538.06;;;9.64;100.00
29379;BME280;16362;47.202;15.258;2022-10-16T04:57:46;96534.72;;;9.61;100.00
29379;BME280;16362;47.202;15.258;2022-10-16T05:00:13;96537.72;;;9.67;100.00
29379;BME280;16362;47.202;15.258;2022-10-16T05:02:40;96541.06;;;9.69;100.00
29379;BME280;16362;47.202;15.258;2022-10-16T05:05:07;96547.06;;;9.71;100.00
29379;BME280;16362;47.202;15.258;2022-10-16T05:07:33;96547.88;;;9.71;100.00
29379;BME280;16362;47.202;15.258;2022-10-16T05:10:00;96536.56;;;9.61;100.00
29379;BME280;16362;47.202;15.258;2022-10-16T05:12:27;96543.69;;;9.60;100.00
29379;BME280;16362;47.202;15.258;2022-10-16T05:14:53;96537.69;;;9.58;100.00
29379;BME280;16362;47.202;15.258;2022-10-16T05:17:25;96539.22;;;9.61;100.00
29379;BME280;16362;47.202;15.258;2022-10-16T05:19:52;96546.22;;;9.62;100.00
29379;BME280;16362;47.202;15.258;2022-10-16T05:22:19;96553.34;;;9.61;100.00
29379;BME280;16362;47.202;15.258;2022-10-16T05:24:46;96543.69;;;9.60;100.00
29379;BME280;16362;47.202;15.258;2022-10-16T05:27:13;96550.03;;;9.59;100.00
29379;BME280;16362;47.202;15.258;2022-10-16T05:29:46;96544.03;;;9.57;100.00
29379;BME280;16362;47.202;15.258;2022-10-16T05:32:14;96548.53;;;9.57;100.00
29379;BME280;16362;47.202;15.258;2022-10-16T05:34:41;96549.16;;;9.51;100.00
29379;BME280;16362;47.202;15.258;2022-10-16T05:37:08;96549.66;;;9.46;100.00
29379;BME280;16362;47.202;15.258;2022-10-16T05:39:35;96560.31;;;9.46;100.00
29379;BME280;16362;47.202;15.258;2022-10-16T05:42:04;96555.16;;;9.44;100.00
29379;BME280;16362;47.202;15.258;2022-10-16T05:44:31;96564.13;;;9.43;100.00
29379;BME280;16362;47.202;15.258;2022-10-16T05:47:00;96560.78;;;9.41;100.00
29379;BME280;16362;47.202;15.258;2022-10-16T05:49:27;96566.78;;;9.43;100.00
29379;BME280;16362;47.202;15.258;2022-10-16T05:51:53;96579.13;;;9.44;100.00
29379;BME280;16362;47.202;15.258;2022-10-16T05:54:20;96579.41;;;9.41;100.00
29379;BME280;16362;47.202;15.258;2022-10-16T05:56:47;96580.28;;;9.42;100.00
29379;BME280;16362;47.202;15.258;2022-10-16T05:59:14;96587.25;;;9.43;100.00
29379;BME280;16362;47.202;15.258;2022-10-16T06:01:40;96596.91;;;9.44;100.00
29379;BME280;16362;47.202;15.258;2022-10-16T06:04:08;96605.06;;;9.42;100.00
29379;BME280;16362;47.202;15.258;2022-10-16T06:06:52;96606.41;;;9.47;100.00
29379;BME280;16362;47.202;15.258;2022-10-16T06:09:19;96608.91;;;9.48;100.00
29379;BME280;16362;47.202;15.258;2022-10-16T06:11:46;96612.28;;;9.50;100.00
29379;BME280;16362;47.202;15.258;2022-10-16T06:14:12;96619.16;;;9.61;100.00
29379;BME280;16362;47.202;15.258;2022-10-16T06:16:39;96615.47;;;10.05;100.00
29379;BME280;16362;47.202;15.258;2022-10-16T06:19:05;96618.84;;;10.23;100.00
29379;BME280;16362;47.202;15.258;2022-10-16T06:21:34;96623.09;;;10.59;100.00
29379;BME280;16362;47.202;15.258;2022-10-16T06:24:01;96624.91;;;11.00;100.00
29379;BME280;16362;47.202;15.258;2022-10-16T06:26:30;96621.38;;;11.32;100.00
29379;BME280;16362;47.202;15.258;2022-10-16T06:28:58;96626.31;;;11.60;100.00
29379;BME280;16362;47.202;15.258;2022-10-16T06:31:26;96632.41;;;11.77;100.00
29379;BME280;16362;47.202;15.258;2022-10-16T06:33:55;96639.09;;;11.89;100.00
29379;BME280;16362;47.202;15.258;2022-10-16T06:36:23;96650.78;;;11.96;100.00
29379;BME280;16362;47.202;15.258;2022-10-16T06:38:51;96650.09;;;11.94;100.00
29379;BME280;16362;47.202;15.258;2022-10-16T06:41:20;96644.69;;;12.11;100.00
29379;BME280;16362;47.202;15.258;2022-10-16T06:43:47;96654.81;;;12.24;100.00
29379;BME280;16362;47.202;15.258;2022-10-16T06:46:17;96644.97;;;12.16;100.00
29379;BME280;16362;47.202;15.258;2022-10-16T06:48:44;96655.00;;;12.22;100.00
29379;BME280;16362;47.202;15.258;2022-10-16T06:51:13;96654.19;;;12.22;100.00
29379;BME280;16362;47.202;15.258;2022-10-16T06:53:45;96651.41;;;12.38;100.00
29379;BME280;16362;47.202;15.258;2022-10-16T06:56:29;96650.63;;;12.53;100.00
29379;BME280;16362;47.202;15.258;2022-10-16T06:58:58;96655.09;;;12.60;100.00
29379;BME280;16362;47.202;15.258;2022-10-16T07:01:25;96662.91;;;12.70;100.00
29379;BME280;16362;47.202;15.258;2022-10-16T07:03:53;96659.38;;;12.93;100.00
29379;BME280;16362;47.202;15.258;2022-10-16T07:06:22;96656.28;;;13.04;100.00
29379;BME280;16362;47.202;15.258;2022-10-16T07:08:49;96662.78;;;13.10;100.00
29379;BME280;16362;47.202;15.258;2022-10-16T07:11:18;96661.03;;;13.17;100.00
29379;BME280;16362;47.202;15.258;2022-10-16T07:13:46;96669.47;;;13.29;100.00
29379;BME280;16362;47.202;15.258;2022-10-16T07:16:22;96659.91;;;13.50;100.00
29379;BME280;16362;47.202;15.258;2022-10-16T07:18:49;96665.84;;;13.60;100.00
29379;BME280;16362;47.202;15.258;2022-10-16T07:21:21;96660.03;;;13.86;100.00
29379;BME280;16362;47.202;15.258;2022-10-16T07:23:57;96663.16;;;14.05;100.00
29379;BME280;16362;47.202;15.258;2022-10-16T07:26:24;96655.00;;;14.13;100.00
29379;BME280;16362;47.202;15.258;2022-10-16T07:28:51;96655.13;;;14.05;100.00
29379;BME280;16362;47.202;15.258;2022-10-16T07:31:19;96660.41;;;13.98;100.00
29379;BME280;16362;47.202;15.258;2022-10-16T07:33:47;96667.25;;;13.86;100.00
29379;BME280;16362;47.202;15.258;2022-10-16T07:36:16;96663.44;;;13.95;100.00
29379;BME280;16362;47.202;15.258;2022-10-16T07:38:43;96660.56;;;14.11;100.00
29379;BME280;16362;47.202;15.258;2022-10-16T07:41:13;96666.28;;;14.08;100.00
29379;BME280;16362;47.202;15.258;2022-10-16T07:43:45;96666.72;;;14.27;100.00
29379;BME280;16362;47.202;15.258;2022-10-16T07:46:12;96671.13;;;14.64;100.00
29379;BME280;16362;47.202;15.258;2022-10-16T07:48:39;96667.03;;;14.90;100.00
29379;BME280;16362;47.202;15.258;2022-10-16T07:51:07;96668.50;;;15.14;100.00
29379;BME280;16362;47.202;15.258;2022-10-16T07:53:33;96666.75;;;15.28;100.00
29379;BME280;16362;47.202;15.258;2022-10-16T07:56:02;96665.44;;;15.46;100.00
29379;BME280;16362;47.202;15.258;2022-10-16T07:58:30;96664.97;;;15.71;100.00
29379;BME280;16362;47.202;15.258;2022-10-16T08:00:57;96659.34;;;15.87;100.00
29379;BME280;16362;47.202;15.258;2022-10-16T08:03:25;96660.00;;;15.96;100.00
29379;BME280;16362;47.202;15.258;2022-10-16T08:05:52;96662.25;;;15.92;100.00
29379;BME280;16362;47.202;15.258;2022-10-16T08:08:19;96659.38;;;16.00;100.00
29379;BME280;16362;47.202;15.258;2022-10-16T08:10:46;96659.66;;;16.12;100.00
29379;BME280;16362;47.202;15.258;2022-10-16T08:13:13;96663.03;;;16.21;100.00
29379;BME280;16362;47.202;15.258;2022-10-16T08:15:42;96653.53;;;16.32;100.00
29379;BME280;16362;47.202;15.258;2022-10-16T08:18:11;96658.97;;;16.45;100.00
29379;BME280;16362;47.202;15.258;2022-10-16T08:20:38;96666.00;;;16.46;100.00
29379;BME280;16362;47.202;15.258;2022-10-16T08:23:05;96657.19;;;16.73;100.00
29379;BME280;16362;47.202;15.258;2022-10-16T08:25:34;96666.59;;;17.04;100.00
29379;BME280;16362;47.202;15.258;2022-10-16T08:28:03;96667.88;;;17.28;100.00
29379;BME280;16362;47.202;15.258;2022-10-16T08:30:31;96669.50;;;17.42;100.00
29379;BME280;16362;47.202;15.258;2022-10-16T08:32:58;96672.19;;;17.62;100.00
29379;BME280;16362;47.202;15.258;2022-10-16T08:35:25;96674.06;;;17.68;98.58
29379;BME280;16362;47.202;15.258;2022-10-16T08:37:51;96673.00;;;17.76;100.00
29379;BME280;16362;47.202;15.258;2022-10-16T08:40:24;96674.47;;;17.79;99.54
29379;BME280;16362;47.202;15.258;2022-10-16T08:48:48;96676.94;;;17.94;100.00
29379;BME280;16362;47.202;15.258;2022-10-16T08:51:27;96674.19;;;18.14;98.89
29379;BME280;16362;47.202;15.258;2022-10-16T08:53:57;96678.72;;;18.33;96.04
29379;BME280;16362;47.202;15.258;2022-10-16T08:56:25;96676.34;;;18.50;95.03
29379;BME280;16362;47.202;15.258;2022-10-16T08:58:53;96677.13;;;18.58;94.20
29379;BME280;16362;47.202;15.258;2022-10-16T09:01:39;96686.16;;;18.45;95.58
29379;BME280;16362;47.202;15.258;2022-10-16T09:04:48;96679.09;;;18.37;96.07
29379;BME280;16362;47.202;15.258;2022-10-16T09:07:28;96681.19;;;18.42;95.65
29379;BME280;16362;47.202;15.258;2022-10-16T09:10:08;96680.31;;;18.48;93.24
29379;BME280;16362;47.202;15.258;2022-10-16T09:12:44;96679.50;;;18.47;97.71
29379;BME280;16362;47.202;15.258;2022-10-16T09:15:40;96683.88;;;18.80;95.12
29379;BME280;16362;47.202;15.258;2022-10-16T09:18:41;96676.41;;;18.89;94.42
29379;BME280;16362;47.202;15.258;2022-10-16T09:21:16;96669.50;;;18.93;92.99
29379;BME280;16362;47.202;15.258;2022-10-16T09:23:44;96671.78;;;18.96;97.56
29379;BME280;16362;47.202;15.258;2022-10-16T09:26:13;96676.69;;;19.06;93.02
29379;BME280;16362;47.202;15.258;2022-10-16T09:28:41;96664.34;;;19.17;94.24
29379;BME280;16362;47.202;15.258;2022-10-16T09:31:14;96670.25;;;19.07;94.35
29379;BME280;16362;47.202;15.258;2022-10-16T09:33:42;96670.88;;;19.09;88.54
29379;BME280;16362;47.202;15.258;2022-10-16T09:36:11;96673.44;;;19.23;90.81
29379;BME280;16362;47.202;15.258;2022-10-16T09:38:39;96680.09;;;19.27;89.83
29379;BME280;16362;47.202;15.258;2022-10-16T09:41:18;96676.28;;;19.34;89.85
29379;BME280;16362;47.202;15.258;2022-10-16T09:43:46;96670.72;;;19.55;87.95
29379;BME280;16362;47.202;15.258;2022-10-16T09:46:47;96677.84;;;19.74;88.19
29379;BME280;16362;47.202;15.258;2022-10-16T09:49:31;96682.41;;;19.74;85.61
29379;BME280;16362;47.202;15.258;2022-10-16T09:52:14;96687.13;;;19.85;87.70
29379;BME280;16362;47.202;15.258;2022-10-16T09:54:57;96683.63;;;20.03;88.60
29379;BME280;16362;47.202;15.258;2022-10-16T09:57:25;96689.72;;;20.17;89.14
29379;BME280;16362;47.202;15.258;2022-10-16T09:59:54;96685.34;;;20.16;85.83
29379;BME280;16362;47.202;15.258;2022-10-16T10:02:31;96688.91;;;20.16;82.94
29379;BME280;16362;47.202;15.258;2022-10-16T10:05:01;96681.06;;;20.08;83.80
29379;BME280;16362;47.202;15.258;2022-10-16T10:07:32;96682.63;;;20.16;82.61
29379;BME280;16362;47.202;15.258;2022-10-16T10:10:03;96678.50;;;20.13;83.75
29379;BME280;16362;47.202;15.258;2022-10-16T10:12:31;96680.00;;;20.28;83.00
29379;BME280;16362;47.202;15.258;2022-10-16T10:15:12;96678.34;;;20.27;82.11
29379;BME280;16362;47.202;15.258;2022-10-16T10:17:52;96678.88;;;20.17;83.22
29379;BME280;16362;47.202;15.258;2022-10-16T10:20:28;96669.53;;;20.31;83.10
29379;BME280;16362;47.202;15.258;2022-10-16T10:22:55;96683.84;;;20.20;82.03
29379;BME280;16362;47.202;15.258;2022-10-16T10:25:30;96666.75;;;20.19;83.33
29379;BME280;16362;47.202;15.258;2022-10-16T10:36:28;96663.03;;;20.51;77.36
29379;BME280;16362;47.202;15.258;2022-10-16T10:38:59;96664.44;;;20.23;79.25
29379;BME280;16362;47.202;15.258;2022-10-16T10:44:11;96658.88;;;20.36;78.50
29379;BME280;16362;47.202;15.258;2022-10-16T10:46:50;96655.06;;;20.38;80.08
29379;BME280;16362;47.202;15.258;2022-10-16T10:50:00;96655.06;;;20.38;80.82
29379;BME280;16362;47.202;15.258;2022-10-16T10:52:41;96657.63;;;20.51;81.91
29379;BME280;16362;47.202;15.258;2022-10-16T10:55:31;96661.56;;;20.36;81.69
29379;BME280;16362;47.202;15.258;2022-10-16T10:58:28;96654.03;;;20.39;77.54
29379;BME280;16362;47.202;15.258;2022-10-16T11:06:29;96653.44;;;20.36;77.54
29379;BME280;16362;47.202;15.258;2022-10-16T11:09:23;96659.91;;;20.35;76.84
29379;BME280;16362;47.202;15.258;2022-10-16T11:12:01;96661.81;;;20.35;79.11
29379;BME280;16362;47.202;15.258;2022-10-16T11:14:34;96655.69;;;20.21;76.99
29379;BME280;16362;47.202;15.258;2022-10-16T11:17:16;96662.75;;;20.03;79.23
29379;BME280;16362;47.202;15.258;2022-10-16T11:19:58;96658.63;;;20.01;80.04
29379;BME280;16362;47.202;15.258;2022-10-16T11:23:00;96658.53;;;20.08;81.96
29379;BME280;16362;47.202;15.258;2022-10-16T11:25:26;96658.94;;;20.11;81.32
29379;BME280;16362;47.202;15.258;2022-10-16T11:27:59;96660.81;;;20.11;82.51
29379;BME280;16362;47.202;15.258;2022-10-16T11:30:33;96650.66;;;20.06;79.82
29379;BME280;16362;47.202;15.258;2022-10-16T11:35:47;96650.84;;;19.86;84.04
29379;BME280;16362;47.202;15.258;2022-10-16T11:41:03;96642.25;;;19.71;81.26
29379;BME280;16362;47.202;15.258;2022-10-16T11:43:35;96646.06;;;19.63;85.32
29379;BME280;16362;47.202;15.258;2022-10-16T11:46:19;96644.31;;;19.50;84.68
29379;BME280;16362;47.202;15.258;2022-10-16T11:49:09;96645.66;;;19.41;84.70
29379;BME280;16362;47.202;15.258;2022-10-16T11:51:43;96640.88;;;19.36;80.47
29379;BME280;16362;47.202;15.258;2022-10-16T11:54:26;96641.16;;;19.28;82.75
29379;BME280;16362;47.202;15.258;2022-10-16T11:56:59;96641.84;;;19.23;84.48
29379;BME280;16362;47.202;15.258;2022-10-16T11:59:42;96647.06;;;19.18;84.83
29379;BME280;16362;47.202;15.258;2022-10-16T12:05:22;96640.72;;;19.06;86.56
29379;BME280;16362;47.202;15.258;2022-10-16T12:08:10;96636.34;;;19.05;88.00
29379;BME280;16362;47.202;15.258;2022-10-16T12:10:40;96633.47;;;18.99;88.64
29379;BME280;16362;47.202;15.258;2022-10-16T12:13:36;96636.22;;;18.93;88.10
29379;BME280;16362;47.202;15.258;2022-10-16T12:16:23;96636.22;;;18.86;88.18
29379;BME280;16362;47.202;15.258;2022-10-16T12:19:09;96642.88;;;18.90;91.11
29379;BME280;16362;47.202;15.258;2022-10-16T12:21:37;96635.41;;;18.85;89.69
29379;BME280;16362;47.202;15.258;2022-10-16T12:24:04;96636.88;;;18.81;90.54
29379;BME280;16362;47.202;15.258;2022-10-16T12:26:33;96635.44;;;18.79;89.35
29379;BME280;16362;47.202;15.258;2022-10-16T12:29:24;96632.97;;;18.77;88.05
29379;BME280;16362;47.202;15.258;2022-10-16T12:31:53;96635.09;;;18.68;88.21
29379;BME280;16362;47.202;15.258;2022-10-16T12:34:45;96646.38;;;18.59;89.61
29379;BME280;16362;47.202;15.258;2022-10-16T12:37:18;96651.81;;;18.52;91.53
29379;BME280;16362;47.202;15.258;2022-10-16T12:39:48;96647.47;;;18.51;85.65
29379;BME280;16362;47.202;15.258;2022-10-16T12:44:50;96653.97;;;18.37;90.10
29379;BME280;16362;47.202;15.258;2022-10-16T12:47:36;96649.41;;;18.30;91.35
29379;BME280;16362;47.202;15.258;2022-10-16T12:50:21;96657.78;;;18.15;90.65
29379;BME280;16362;47.202;15.258;2022-10-16T12:52:49;96652.00;;;18.12;92.21
29379;BME280;16362;47.202;15.258;2022-10-16T12:55:18;96660.09;;;18.12;93.07
29379;BME280;16362;47.202;15.258;2022-10-16T13:00:44;96661.38;;;17.96;93.26
29379;BME280;16362;47.202;15.258;2022-10-16T13:14:45;96675.47;;;17.84;95.82
29379;BME280;16362;47.202;15.258;2022-10-16T13:17:50;96676.94;;;17.87;98.50
29379;BME280;16362;47.202;15.258;2022-10-16T13:20:31;96675.69;;;17.83;98.95
29379;BME280;16362;47.202;15.258;2022-10-16T13:28:12;96676.94;;;17.87;96.77
29379;BME280;16362;47.202;15.258;2022-10-16T13:30:44;96689.00;;;17.78;100.00
29379;BME280;16362;47.202;15.258;2022-10-16T13:36:03;96694.81;;;17.61;100.00
29379;BME280;16362;47.202;15.258;2022-10-16T13:38:33;96695.25;;;17.65;100.00
29379;BME280;16362;47.202;15.258;2022-10-16T13:41:14;96689.41;;;17.68;99.74
29379;BME280;16362;47.202;15.258;2022-10-16T13:43:47;96696.47;;;17.69;100.00
29379;BME280;16362;47.202;15.258;2022-10-16T13:46:23;96696.28;;;17.57;100.00
29379;BME280;16362;47.202;15.258;2022-10-16T13:51:25;96707.50;;;17.41;100.00
29379;BME280;16362;47.202;15.258;2022-10-16T13:53:52;96714.75;;;17.27;100.00
29379;BME280;16362;47.202;15.258;2022-10-16T13:56:22;96712.28;;;17.32;100.00
29379;BME280;16362;47.202;15.258;2022-10-16T13:59:02;96711.41;;;17.31;100.00
29379;BME280;16362;47.202;15.258;2022-10-16T14:04:06;96716.97;;;17.03;100.00
29379;BME280;16362;47.202;15.258;2022-10-16T14:06:35;96710.13;;;17.00;100.00
29379;BME280;16362;47.202;15.258;2022-10-16T14:09:06;96714.03;;;16.84;100.00
29379;BME280;16362;47.202;15.258;2022-10-16T14:11:46;96719.19;;;16.79;100.00
29379;BME280;16362;47.202;15.258;2022-10-16T14:14:15;96713.13;;;16.71;100.00
29379;BME280;16362;47.202;15.258;2022-10-16T14:16:43;96717.69;;;16.63;100.00
29379;BME280;16362;47.202;15.258;2022-10-16T14:19:19;96723.69;;;16.65;100.00
29379;BME280;16362;47.202;15.258;2022-10-16T14:21:46;96725.94;;;16.55;100.00
29379;BME280;16362;47.202;15.258;2022-10-16T14:24:24;96732.28;;;16.41;100.00
29379;BME280;16362;47.202;15.258;2022-10-16T14:26:52;96731.44;;;16.33;100.00
29379;BME280;16362;47.202;15.258;2022-10-16T14:29:21;96735.75;;;16.28;100.00